Pagrindinis puslapis
METAR-TAF:

METAR-TAF

Oro uostai :

Marathon, Florida, Jungtinės Amerikos Valstijos

platuma: 24-43-33N, ilguma: 081-02-52W, Aukštis: 2 m

Dabartinis oras

Ataskaita buvo paskelbta 1 valandą ir 1 minutes, ne 13:53 UTC
Vėjas 4 kt iš Šiaurės/Šiaurės Rytų
Temperatūra 29°C
Drėgmė 79%
Slėgis 1016 hPa
Matomumas: 16.1 km
Giedras dangus

METAR: KMTH 251353Z AUTO 03004KT 10SM CLR 29/25 A3000 RMK AO2 LTG DSNT NE SLP157 T02940250

Laikas: 10:54 (14:54 UTC)

Prognozė

Ataskaita buvo paskelbta 3 valandos ir 27 minutes, ne 11:27 UTC
Prognozė galioja nuo 25 metu 12 UTC su 26 metu 12 UTC
Vėjas 3 kt nuo kintamojo kryptimis
Matomumas: 10 km
Išsisklaidę debesys ne aukštis 2000 ft
Liūtis kaimynystėje
Nuo 26 metu 0100 UTC
Vėjas 3 kt iš Rytų/Šiaurės Rytų
Matomumas: 10 km
Išsisklaidę debesys ne aukštis 2000 ft

TAF: KMTH 251127Z 2512/2612 VRB03KT P6SM VCSH SCT020 FM260100 07003KT P6SM SCT020

Orai ataskaitas ir orų prognozės (METAR, TAF).

turimą stotys yra geltonos ir raudonos taškus žemėlapyje.

Perkelti pele per norėdami pamatyti stoties vardą.

Tada spustelėkite, norėdami matyti oro stebėjimo ir prognozės.

Norėdami pakeisti žemėlapį: spustelėkite ant žalios mygtukų su juodo kryžiaus žemyn,; žalią mygtuką su brūkšneliu, jei norite nutolinti; arba žalių rodyklių gretimoms žemėlapius.


METAR-TAF: